nws-alerts: Checking more than four warning/county codes can delay the loading of your pages. You should use a cron job to get the data.

Nearby METAR Reports

 

KOXC - Oxford/Waterbury, Connecticut, USA
Distance from station: NW 7mi, 11km
Updated: 12/01/2020 3:51pm
Mostly cloudy
Mostly cloudy
 Wind from SW
Wind: SW 14 mph , 22 km/h, Gust: 21 mph , 33 km/h
Temperature: 46°F , 8°C
Wind Chill: 40°F , 4°C
Dew Point: 34°F , 1°C
Humidity: 62%
Barometer: 29.55 inHg , 1000.7 hPa
Clouds: Mostly cloudy
Visibility: 10 miles , 16 km
Cloud details: Mostly cloudy 4000 ft
2020/12/01 20:51 KOXC 012051Z 22012G18KT 10SM BKN040 08/01 A2955 RMK AO2 SLP019 T00780011 53017
KHVN - New Haven/Tweed, Connecticut, USA
Distance from station: SE 13mi, 20km
Updated: 12/01/2020 3:53pm
Partly cloudy
Partly cloudy
 Wind from SW
Wind: SW 21 mph , 33 km/h, Gust: 28 mph , 44 km/h
Temperature: 52°F , 11°C
Dew Point: 36°F , 2°C
Humidity: 54%
Barometer: 29.58 inHg , 1001.7 hPa
Clouds: Partly cloudy
Visibility: 10 miles , 16 km
Cloud details: Partly cloudy 5500 ft
2020/12/01 20:53 KHVN 012053Z 22018G24KT 10SM SCT055 11/02 A2958 RMK AO2 SLP015 T01060022 53020
 
KMMK - Meriden, Connecticut, USA
Distance from station: NE 13mi, 21km
Updated: 12/01/2020 3:53pm
Mostly cloudy
Mostly cloudy
 Wind from SSW
Wind: SSW 9 mph , 15 km/h
Temperature: 48°F , 9°C
Wind Chill: 44°F , 7°C
Dew Point: 34°F , 1°C
Humidity: 58%
Barometer: 29.55 inHg , 1000.7 hPa
Clouds: Mostly cloudy
Visibility: 10 miles , 16 km
Cloud details: Mostly cloudy 4400 ft
2020/12/01 20:53 KMMK 012053Z AUTO 21008KT 10SM BKN044 09/01 A2955 RMK AO2 SLP007 T00940006 53017
KBDR - Bridgeport, Connecticut, USA
Distance from station: SSW 17mi, 27km
Updated: 12/01/2020 3:52pm
Overcast
Overcast
 Wind from SW
Wind: SW 22 mph , 35 km/h
Temperature: 50°F , 10°C
Wind Chill: 43°F , 6°C
Dew Point: 36°F , 2°C
Humidity: 58%
Barometer: 29.58 inHg , 1001.7 hPa
Clouds: Overcast
Visibility: 10 miles , 16 km
Cloud details: Partly cloudy 3500 ft
Mostly cloudy 4800 ft
Overcast 6000 ft
2020/12/01 20:52 KBDR 012052Z 23019KT 10SM SCT035 BKN048 OVC060 10/02 A2958 RMK AO2 PK WND 23027/2035 SLP017 T01000017 53021
 
KDXR - Danbury, Connecticut, USA
Distance from station: W 23mi, 38km
Updated: 12/01/2020 3:53pm
Overcast
Overcast
 Wind from SW
Wind: SW 15 mph , 24 km/h, Gust: 24 mph , 39 km/h
Temperature: 45°F , 7°C
Wind Chill: 38°F , 3°C
Dew Point: 32°F , 0°C
Humidity: 61%
Barometer: 29.58 inHg , 1001.7 hPa
Clouds: Overcast
Visibility: 10 miles , 16 km
Cloud details: Overcast 4200 ft
2020/12/01 20:53 KDXR 012053Z 23013G21KT 10SM OVC042 07/00 A2958 RMK AO2 SLP015 T00670000 53023